MDT,Max TemperatureF,Mean TemperatureF,Min TemperatureF,Max Dew PointF,MeanDew PointF,Min DewpointF,Max Humidity, Mean Humidity, Min Humidity, Max Sea Level PressureIn, Mean Sea Level PressureIn, Min Sea Level PressureIn, Max VisibilityMiles, Mean VisibilityMiles, Min VisibilityMiles, Max Wind SpeedMPH, Mean Wind SpeedMPH, Max Gust SpeedMPH,PrecipitationIn, CloudCover, Events, WindDirDegrees
2012-9-1,94,76,59,41,37,32,38,23,12,29.93,29.86,29.79,10,10,10,13,5,,0.00,0,,306
2012-9-2,96,78,61,46,41,38,43,26,14,29.89,29.81,29.73,10,10,10,10,5,,0.00,0,,195
2012-9-3,98,82,67,47,43,40,40,25,14,29.84,29.77,29.70,10,10,10,20,5,24,0.00,1,,351
2012-9-4,97,84,72,55,48,42,49,30,15,29.84,29.75,29.67,10,10,10,12,6,,0.00,2,,177
2012-9-5,97,84,72,57,50,46,53,32,19,29.80,29.72,29.65,10,10,10,17,8,23,0.00,2,,148
2012-9-6,94,82,72,58,54,49,60,37,22,29.85,29.77,29.69,10,10,10,21,12,31,0.00,3,Thunderstorm,172
2012-9-7,96,83,71,61,56,52,69,43,23,29.93,29.78,29.68,10,10,7,31,11,37,0.00,2,Thunderstorm,149
2012-9-8,71,66,60,63,60,54,95,87,60,30.16,30.08,29.95,10,9,2,8,4,,0.24,4,Rain,186
2012-9-9,79,68,59,60,55,51,92,66,40,30.15,30.06,29.98,10,10,10,12,3,,0.00,4,,310
2012-9-10,88,74,60,60,51,45,84,48,22,30.01,29.92,29.81,10,10,10,10,2,,0.00,1,,128
2012-9-11,86,74,61,54,51,48,61,45,28,29.90,29.83,29.76,10,10,10,14,5,,0.00,1,Rain,184
2012-9-12,87,76,65,62,54,48,81,51,26,29.87,29.83,29.75,10,10,10,18,8,21,0.00,1,Rain,226
2012-9-13,69,64,60,59,54,48,88,71,53,30.31,30.08,29.86,10,8,1,20,12,,0.25,4,Rain,28
2012-9-14,75,62,51,50,43,35,77,51,24,30.24,30.17,30.09,10,10,10,9,6,,0.00,1,,175
2012-9-15,76,62,48,46,38,29,76,45,18,30.19,30.09,29.99,10,10,9,9,3,,0.00,1,,153
2012-9-16,86,67,48,41,38,33,71,41,15,30.01,29.92,29.80,10,8,4,10,5,,0.00,0,,158
2012-9-17,89,70,53,38,32,23,56,26,9,29.86,29.79,29.72,10,10,9,21,5,28,0.00,1,,47
2012-9-18,84,69,54,40,37,27,56,31,13,30.00,29.93,29.80,10,10,10,9,4,,0.00,0,,144
2012-9-19,88,71,54,48,38,27,59,33,11,30.01,29.94,29.86,10,10,10,9,4,,0.00,0,,139
2012-9-20,91,72,54,37,31,20,51,24,8,29.95,29.87,29.79,10,10,10,9,5,,0.00,0,,118
2012-9-21,92,73,55,32,29,20,41,21,8,29.92,29.84,29.78,10,10,10,9,6,16,0.00,0,,113
2012-9-22,92,74,55,34,30,24,40,21,9,29.97,29.90,29.83,10,10,10,14,5,,0.00,0,,178
2012-9-23,89,70,53,31,27,23,41,19,9,30.06,29.96,29.90,10,10,10,13,8,,0.00,0,,192
2012-9-24,88,70,52,31,27,23,37,20,9,29.99,29.87,29.75,10,10,10,10,5,,0.00,0,,178
2012-9-25,87,72,58,36,32,26,35,23,15,29.85,29.76,29.69,10,10,10,10,6,,0.00,1,,179
2012-9-26,89,74,61,48,40,34,46,28,17,29.81,29.76,29.70,10,10,9,13,6,,0.00,1,,169
2012-9-27,85,74,64,54,50,47,64,43,28,29.91,29.84,29.78,10,10,10,17,9,24,0.00,2,Rain,153
2012-9-28,72,66,60,63,58,50,100,82,52,29.94,29.89,29.84,10,9,4,14,7,,0.32,4,Rain,282
2012-9-29,76,66,56,61,55,47,100,72,35,30.02,29.94,29.86,10,10,10,9,3,,0.00,0,,171
2012-9-30,82,68,55,56,50,41,84,55,23,29.96,29.87,29.78,10,10,10,10,4,,0.00,0,,149